sensor_id;sensor_type;location;lat;lon;timestamp;P1;durP1;ratioP1;P2;durP2;ratioP2
35990;SDS011;22064;42.672;23.282;2023-04-25T00:00:46;10.23;;;4.97;;
35990;SDS011;22064;42.672;23.282;2023-04-25T00:03:12;11.88;;;5.95;;
35990;SDS011;22064;42.672;23.282;2023-04-25T00:05:39;9.95;;;5.55;;
35990;SDS011;22064;42.672;23.282;2023-04-25T00:08:05;10.35;;;5.85;;
35990;SDS011;22064;42.672;23.282;2023-04-25T00:10:31;13.70;;;6.53;;
35990;SDS011;22064;42.672;23.282;2023-04-25T00:12:57;10.98;;;6.22;;
35990;SDS011;22064;42.672;23.282;2023-04-25T00:15:24;13.38;;;7.07;;
35990;SDS011;22064;42.672;23.282;2023-04-25T00:17:50;12.05;;;6.43;;
35990;SDS011;22064;42.672;23.282;2023-04-25T00:20:18;12.82;;;7.10;;
35990;SDS011;22064;42.672;23.282;2023-04-25T00:22:44;11.93;;;6.50;;
35990;SDS011;22064;42.672;23.282;2023-04-25T00:25:09;11.95;;;6.80;;
35990;SDS011;22064;42.672;23.282;2023-04-25T00:27:35;11.32;;;6.38;;
35990;SDS011;22064;42.672;23.282;2023-04-25T00:30:02;10.18;;;6.53;;
35990;SDS011;22064;42.672;23.282;2023-04-25T00:32:28;11.85;;;7.05;;
35990;SDS011;22064;42.672;23.282;2023-04-25T00:34:54;12.75;;;6.70;;
35990;SDS011;22064;42.672;23.282;2023-04-25T00:37:21;13.65;;;7.53;;
35990;SDS011;22064;42.672;23.282;2023-04-25T00:39:47;14.88;;;7.63;;
35990;SDS011;22064;42.672;23.282;2023-04-25T00:42:13;12.35;;;6.72;;
35990;SDS011;22064;42.672;23.282;2023-04-25T00:44:39;12.45;;;6.00;;
35990;SDS011;22064;42.672;23.282;2023-04-25T00:47:05;10.07;;;5.72;;
35990;SDS011;22064;42.672;23.282;2023-04-25T00:49:31;11.45;;;5.82;;
35990;SDS011;22064;42.672;23.282;2023-04-25T00:51:57;11.00;;;6.28;;
35990;SDS011;22064;42.672;23.282;2023-04-25T00:54:23;10.93;;;6.15;;
35990;SDS011;22064;42.672;23.282;2023-04-25T00:56:50;12.45;;;6.30;;
35990;SDS011;22064;42.672;23.282;2023-04-25T00:59:16;10.82;;;6.15;;
35990;SDS011;22064;42.672;23.282;2023-04-25T01:01:43;11.15;;;6.68;;
35990;SDS011;22064;42.672;23.282;2023-04-25T01:04:10;13.43;;;7.20;;
35990;SDS011;22064;42.672;23.282;2023-04-25T01:06:36;12.68;;;6.93;;
35990;SDS011;22064;42.672;23.282;2023-04-25T01:09:02;14.73;;;8.07;;
35990;SDS011;22064;42.672;23.282;2023-04-25T01:11:30;15.43;;;8.48;;
35990;SDS011;22064;42.672;23.282;2023-04-25T01:13:56;15.18;;;8.23;;
35990;SDS011;22064;42.672;23.282;2023-04-25T01:16:23;15.75;;;8.50;;
35990;SDS011;22064;42.672;23.282;2023-04-25T01:18:52;17.38;;;10.00;;
35990;SDS011;22064;42.672;23.282;2023-04-25T01:21:18;18.63;;;9.88;;
35990;SDS011;22064;42.672;23.282;2023-04-25T01:23:46;21.63;;;10.75;;
35990;SDS011;22064;42.672;23.282;2023-04-25T01:26:12;22.90;;;10.70;;
35990;SDS011;22064;42.672;23.282;2023-04-25T01:28:40;19.35;;;10.45;;
35990;SDS011;22064;42.672;23.282;2023-04-25T01:31:10;21.20;;;10.65;;
35990;SDS011;22064;42.672;23.282;2023-04-25T01:33:37;21.65;;;10.35;;
35990;SDS011;22064;42.672;23.282;2023-04-25T01:36:03;20.75;;;10.57;;
35990;SDS011;22064;42.672;23.282;2023-04-25T01:38:30;24.88;;;11.50;;
35990;SDS011;22064;42.672;23.282;2023-04-25T01:40:55;26.73;;;12.23;;
35990;SDS011;22064;42.672;23.282;2023-04-25T01:43:21;23.60;;;11.50;;
35990;SDS011;22064;42.672;23.282;2023-04-25T01:45:48;22.73;;;11.73;;
35990;SDS011;22064;42.672;23.282;2023-04-25T01:48:15;23.83;;;11.73;;
35990;SDS011;22064;42.672;23.282;2023-04-25T01:50:43;24.88;;;12.35;;
35990;SDS011;22064;42.672;23.282;2023-04-25T01:53:11;22.50;;;11.93;;
35990;SDS011;22064;42.672;23.282;2023-04-25T01:55:38;21.45;;;11.50;;
35990;SDS011;22064;42.672;23.282;2023-04-25T01:58:08;23.27;;;11.00;;
35990;SDS011;22064;42.672;23.282;2023-04-25T02:00:55;23.58;;;11.43;;
35990;SDS011;22064;42.672;23.282;2023-04-25T02:03:24;24.67;;;11.80;;
35990;SDS011;22064;42.672;23.282;2023-04-25T02:05:50;25.42;;;13.43;;
35990;SDS011;22064;42.672;23.282;2023-04-25T02:08:17;27.15;;;13.55;;
35990;SDS011;22064;42.672;23.282;2023-04-25T02:10:43;26.88;;;14.15;;
35990;SDS011;22064;42.672;23.282;2023-04-25T02:13:15;27.52;;;14.35;;
35990;SDS011;22064;42.672;23.282;2023-04-25T02:16:01;24.88;;;12.15;;
35990;SDS011;22064;42.672;23.282;2023-04-25T02:18:27;24.05;;;11.93;;
35990;SDS011;22064;42.672;23.282;2023-04-25T02:20:53;20.55;;;10.82;;
35990;SDS011;22064;42.672;23.282;2023-04-25T02:23:19;20.65;;;11.00;;
35990;SDS011;22064;42.672;23.282;2023-04-25T02:25:45;20.58;;;10.68;;
35990;SDS011;22064;42.672;23.282;2023-04-25T02:28:11;20.80;;;10.73;;
35990;SDS011;22064;42.672;23.282;2023-04-25T02:30:37;20.55;;;10.35;;
35990;SDS011;22064;42.672;23.282;2023-04-25T02:33:04;20.35;;;9.98;;
35990;SDS011;22064;42.672;23.282;2023-04-25T02:35:30;19.80;;;10.00;;
35990;SDS011;22064;42.672;23.282;2023-04-25T02:37:56;19.30;;;9.70;;
35990;SDS011;22064;42.672;23.282;2023-04-25T02:40:22;23.02;;;11.10;;
35990;SDS011;22064;42.672;23.282;2023-04-25T02:42:48;20.73;;;10.27;;
35990;SDS011;22064;42.672;23.282;2023-04-25T02:45:14;21.60;;;11.30;;
35990;SDS011;22064;42.672;23.282;2023-04-25T02:47:40;21.58;;;11.98;;
35990;SDS011;22064;42.672;23.282;2023-04-25T02:50:06;23.67;;;11.55;;
35990;SDS011;22064;42.672;23.282;2023-04-25T02:52:32;22.30;;;11.13;;
35990;SDS011;22064;42.672;23.282;2023-04-25T02:55:07;21.83;;;10.70;;
35990;SDS011;22064;42.672;23.282;2023-04-25T02:57:35;25.80;;;12.15;;
35990;SDS011;22064;42.672;23.282;2023-04-25T03:00:01;25.92;;;12.73;;
35990;SDS011;22064;42.672;23.282;2023-04-25T03:02:27;25.30;;;12.20;;
35990;SDS011;22064;42.672;23.282;2023-04-25T03:04:53;26.77;;;12.65;;
35990;SDS011;22064;42.672;23.282;2023-04-25T03:07:19;26.05;;;12.70;;
35990;SDS011;22064;42.672;23.282;2023-04-25T03:09:47;24.83;;;12.15;;
35990;SDS011;22064;42.672;23.282;2023-04-25T03:12:13;25.73;;;12.73;;
35990;SDS011;22064;42.672;23.282;2023-04-25T03:14:39;25.48;;;12.50;;
35990;SDS011;22064;42.672;23.282;2023-04-25T03:17:05;24.27;;;12.35;;
35990;SDS011;22064;42.672;23.282;2023-04-25T03:19:31;24.35;;;11.90;;
35990;SDS011;22064;42.672;23.282;2023-04-25T03:21:57;28.55;;;13.43;;
35990;SDS011;22064;42.672;23.282;2023-04-25T03:24:23;25.63;;;12.85;;
35990;SDS011;22064;42.672;23.282;2023-04-25T03:26:48;25.50;;;12.40;;
35990;SDS011;22064;42.672;23.282;2023-04-25T03:29:14;26.80;;;13.15;;
35990;SDS011;22064;42.672;23.282;2023-04-25T03:31:41;25.83;;;12.70;;
35990;SDS011;22064;42.672;23.282;2023-04-25T03:34:08;28.45;;;13.70;;
35990;SDS011;22064;42.672;23.282;2023-04-25T03:36:34;28.45;;;13.63;;
35990;SDS011;22064;42.672;23.282;2023-04-25T03:39:00;28.85;;;12.98;;
35990;SDS011;22064;42.672;23.282;2023-04-25T03:41:26;27.17;;;13.50;;
35990;SDS011;22064;42.672;23.282;2023-04-25T03:44:01;29.15;;;14.48;;
35990;SDS011;22064;42.672;23.282;2023-04-25T03:46:27;28.85;;;14.55;;
35990;SDS011;22064;42.672;23.282;2023-04-25T03:48:53;31.27;;;15.40;;
35990;SDS011;22064;42.672;23.282;2023-04-25T03:51:23;27.38;;;13.85;;
35990;SDS011;22064;42.672;23.282;2023-04-25T03:53:49;26.90;;;13.70;;
35990;SDS011;22064;42.672;23.282;2023-04-25T03:56:30;24.20;;;12.30;;
35990;SDS011;22064;42.672;23.282;2023-04-25T03:59:03;21.63;;;11.07;;
35990;SDS011;22064;42.672;23.282;2023-04-25T04:01:30;20.20;;;10.73;;
35990;SDS011;22064;42.672;23.282;2023-04-25T04:03:56;17.90;;;9.40;;
35990;SDS011;22064;42.672;23.282;2023-04-25T04:06:23;17.55;;;9.07;;
35990;SDS011;22064;42.672;23.282;2023-04-25T04:08:56;15.68;;;8.00;;
35990;SDS011;22064;42.672;23.282;2023-04-25T04:11:23;15.73;;;8.27;;
35990;SDS011;22064;42.672;23.282;2023-04-25T04:13:49;15.07;;;7.57;;
35990;SDS011;22064;42.672;23.282;2023-04-25T04:16:15;16.30;;;7.80;;
35990;SDS011;22064;42.672;23.282;2023-04-25T04:18:41;16.45;;;8.75;;
35990;SDS011;22064;42.672;23.282;2023-04-25T04:21:07;16.13;;;8.98;;
35990;SDS011;22064;42.672;23.282;2023-04-25T04:23:35;17.38;;;9.00;;
35990;SDS011;22064;42.672;23.282;2023-04-25T04:26:01;16.80;;;9.23;;
35990;SDS011;22064;42.672;23.282;2023-04-25T04:28:27;16.90;;;8.82;;
35990;SDS011;22064;42.672;23.282;2023-04-25T04:31:04;19.38;;;9.50;;
35990;SDS011;22064;42.672;23.282;2023-04-25T04:33:30;20.67;;;10.02;;
35990;SDS011;22064;42.672;23.282;2023-04-25T04:36:00;17.75;;;9.20;;
35990;SDS011;22064;42.672;23.282;2023-04-25T04:38:28;17.58;;;10.02;;
35990;SDS011;22064;42.672;23.282;2023-04-25T04:40:58;18.20;;;9.43;;
35990;SDS011;22064;42.672;23.282;2023-04-25T04:43:33;17.63;;;9.90;;
35990;SDS011;22064;42.672;23.282;2023-04-25T04:46:17;17.50;;;9.43;;
35990;SDS011;22064;42.672;23.282;2023-04-25T04:49:10;18.33;;;9.90;;
35990;SDS011;22064;42.672;23.282;2023-04-25T04:51:47;19.50;;;10.20;;
35990;SDS011;22064;42.672;23.282;2023-04-25T04:54:36;19.98;;;10.98;;
35990;SDS011;22064;42.672;23.282;2023-04-25T04:57:14;19.52;;;10.80;;
35990;SDS011;22064;42.672;23.282;2023-04-25T05:03:19;20.08;;;10.27;;
35990;SDS011;22064;42.672;23.282;2023-04-25T05:06:10;17.98;;;9.77;;
35990;SDS011;22064;42.672;23.282;2023-04-25T05:08:59;19.58;;;10.30;;
35990;SDS011;22064;42.672;23.282;2023-04-25T05:11:48;19.53;;;10.53;;
35990;SDS011;22064;42.672;23.282;2023-04-25T05:14:38;19.15;;;10.55;;
35990;SDS011;22064;42.672;23.282;2023-04-25T05:17:27;22.15;;;12.32;;
35990;SDS011;22064;42.672;23.282;2023-04-25T05:20:18;20.60;;;11.60;;
35990;SDS011;22064;42.672;23.282;2023-04-25T05:23:00;21.52;;;11.43;;
35990;SDS011;22064;42.672;23.282;2023-04-25T05:25:55;20.50;;;10.82;;
35990;SDS011;22064;42.672;23.282;2023-04-25T05:28:36;22.58;;;12.07;;
35990;SDS011;22064;42.672;23.282;2023-04-25T05:31:13;22.40;;;11.23;;
35990;SDS011;22064;42.672;23.282;2023-04-25T05:33:57;21.42;;;11.82;;
35990;SDS011;22064;42.672;23.282;2023-04-25T05:36:31;20.83;;;11.38;;
35990;SDS011;22064;42.672;23.282;2023-04-25T05:38:57;23.60;;;13.30;;
35990;SDS011;22064;42.672;23.282;2023-04-25T05:41:41;24.02;;;13.85;;
35990;SDS011;22064;42.672;23.282;2023-04-25T05:44:26;24.23;;;13.32;;
35990;SDS011;22064;42.672;23.282;2023-04-25T05:47:13;24.85;;;15.23;;
35990;SDS011;22064;42.672;23.282;2023-04-25T05:49:56;27.23;;;15.88;;
35990;SDS011;22064;42.672;23.282;2023-04-25T05:52:38;27.58;;;16.48;;
35990;SDS011;22064;42.672;23.282;2023-04-25T05:55:10;31.88;;;16.67;;
35990;SDS011;22064;42.672;23.282;2023-04-25T05:57:37;24.65;;;14.93;;
35990;SDS011;22064;42.672;23.282;2023-04-25T06:00:08;24.45;;;14.30;;
35990;SDS011;22064;42.672;23.282;2023-04-25T06:02:40;24.05;;;13.00;;
35990;SDS011;22064;42.672;23.282;2023-04-25T06:05:08;22.77;;;12.75;;
35990;SDS011;22064;42.672;23.282;2023-04-25T06:07:34;27.30;;;15.85;;
35990;SDS011;22064;42.672;23.282;2023-04-25T06:10:02;27.23;;;15.27;;
35990;SDS011;22064;42.672;23.282;2023-04-25T06:12:37;24.85;;;15.43;;
35990;SDS011;22064;42.672;23.282;2023-04-25T06:15:12;25.08;;;15.05;;
35990;SDS011;22064;42.672;23.282;2023-04-25T06:17:43;24.55;;;14.70;;
35990;SDS011;22064;42.672;23.282;2023-04-25T06:20:16;31.17;;;13.95;;
35990;SDS011;22064;42.672;23.282;2023-04-25T06:22:48;23.88;;;13.77;;
35990;SDS011;22064;42.672;23.282;2023-04-25T06:25:34;23.42;;;14.13;;
35990;SDS011;22064;42.672;23.282;2023-04-25T06:28:01;23.83;;;14.02;;
35990;SDS011;22064;42.672;23.282;2023-04-25T06:30:27;26.88;;;14.05;;
35990;SDS011;22064;42.672;23.282;2023-04-25T06:32:58;24.25;;;14.40;;
35990;SDS011;22064;42.672;23.282;2023-04-25T06:35:24;22.65;;;13.77;;
35990;SDS011;22064;42.672;23.282;2023-04-25T06:37:50;24.80;;;13.82;;
35990;SDS011;22064;42.672;23.282;2023-04-25T06:40:19;19.95;;;10.70;;
35990;SDS011;22064;42.672;23.282;2023-04-25T06:42:45;20.20;;;11.13;;
35990;SDS011;22064;42.672;23.282;2023-04-25T06:45:33;19.20;;;10.70;;
35990;SDS011;22064;42.672;23.282;2023-04-25T06:47:59;21.60;;;9.60;;
35990;SDS011;22064;42.672;23.282;2023-04-25T06:50:25;20.98;;;9.82;;
35990;SDS011;22064;42.672;23.282;2023-04-25T06:52:51;17.13;;;9.43;;
35990;SDS011;22064;42.672;23.282;2023-04-25T06:55:18;18.33;;;9.75;;
35990;SDS011;22064;42.672;23.282;2023-04-25T06:58:11;17.40;;;9.45;;
35990;SDS011;22064;42.672;23.282;2023-04-25T07:00:52;18.52;;;9.82;;
35990;SDS011;22064;42.672;23.282;2023-04-25T07:03:20;17.98;;;10.32;;
35990;SDS011;22064;42.672;23.282;2023-04-25T07:05:47;18.92;;;9.63;;
35990;SDS011;22064;42.672;23.282;2023-04-25T07:08:12;18.33;;;9.25;;
35990;SDS011;22064;42.672;23.282;2023-04-25T07:10:38;17.17;;;9.20;;
35990;SDS011;22064;42.672;23.282;2023-04-25T07:13:05;22.13;;;11.70;;
35990;SDS011;22064;42.672;23.282;2023-04-25T07:15:31;16.13;;;8.55;;
35990;SDS011;22064;42.672;23.282;2023-04-25T07:17:58;17.30;;;9.25;;
35990;SDS011;22064;42.672;23.282;2023-04-25T07:20:24;19.30;;;10.10;;
35990;SDS011;22064;42.672;23.282;2023-04-25T07:22:50;18.33;;;9.50;;
35990;SDS011;22064;42.672;23.282;2023-04-25T07:25:16;20.42;;;9.25;;
35990;SDS011;22064;42.672;23.282;2023-04-25T07:27:43;15.55;;;8.43;;
35990;SDS011;22064;42.672;23.282;2023-04-25T07:30:15;18.58;;;8.50;;
35990;SDS011;22064;42.672;23.282;2023-04-25T07:32:41;14.80;;;7.90;;
35990;SDS011;22064;42.672;23.282;2023-04-25T07:35:07;15.85;;;8.27;;
35990;SDS011;22064;42.672;23.282;2023-04-25T07:37:34;18.63;;;8.23;;
35990;SDS011;22064;42.672;23.282;2023-04-25T07:40:13;17.88;;;8.70;;
35990;SDS011;22064;42.672;23.282;2023-04-25T07:42:45;12.45;;;6.60;;
35990;SDS011;22064;42.672;23.282;2023-04-25T07:45:15;12.32;;;6.45;;
35990;SDS011;22064;42.672;23.282;2023-04-25T07:47:41;13.15;;;7.10;;
35990;SDS011;22064;42.672;23.282;2023-04-25T07:50:08;14.60;;;7.07;;
35990;SDS011;22064;42.672;23.282;2023-04-25T07:52:34;15.18;;;7.15;;
35990;SDS011;22064;42.672;23.282;2023-04-25T07:55:07;16.10;;;7.03;;
35990;SDS011;22064;42.672;23.282;2023-04-25T07:57:43;13.70;;;6.93;;
35990;SDS011;22064;42.672;23.282;2023-04-25T08:00:09;17.48;;;7.93;;
35990;SDS011;22064;42.672;23.282;2023-04-25T08:02:39;15.55;;;7.80;;
35990;SDS011;22064;42.672;23.282;2023-04-25T08:05:09;17.52;;;7.95;;
35990;SDS011;22064;42.672;23.282;2023-04-25T08:07:41;14.30;;;7.40;;
35990;SDS011;22064;42.672;23.282;2023-04-25T08:10:07;15.77;;;8.90;;
35990;SDS011;22064;42.672;23.282;2023-04-25T08:12:33;14.40;;;7.72;;
35990;SDS011;22064;42.672;23.282;2023-04-25T08:14:59;18.48;;;7.75;;
35990;SDS011;22064;42.672;23.282;2023-04-25T08:17:30;17.55;;;7.65;;
35990;SDS011;22064;42.672;23.282;2023-04-25T08:19:56;14.93;;;7.35;;
35990;SDS011;22064;42.672;23.282;2023-04-25T08:22:28;19.90;;;7.97;;
35990;SDS011;22064;42.672;23.282;2023-04-25T08:25:13;14.18;;;7.28;;
35990;SDS011;22064;42.672;23.282;2023-04-25T08:27:39;11.85;;;6.68;;
35990;SDS011;22064;42.672;23.282;2023-04-25T08:30:06;11.38;;;6.63;;
35990;SDS011;22064;42.672;23.282;2023-04-25T08:32:34;10.70;;;6.03;;
35990;SDS011;22064;42.672;23.282;2023-04-25T08:35:31;8.02;;;5.10;;
35990;SDS011;22064;42.672;23.282;2023-04-25T08:37:59;7.45;;;4.45;;
35990;SDS011;22064;42.672;23.282;2023-04-25T08:40:27;4.18;;;2.97;;
35990;SDS011;22064;42.672;23.282;2023-04-25T08:43:15;5.63;;;2.80;;
35990;SDS011;22064;42.672;23.282;2023-04-25T08:45:44;5.40;;;3.00;;
35990;SDS011;22064;42.672;23.282;2023-04-25T08:48:17;5.72;;;3.10;;
35990;SDS011;22064;42.672;23.282;2023-04-25T08:50:50;11.05;;;5.70;;
35990;SDS011;22064;42.672;23.282;2023-04-25T08:53:21;11.85;;;5.60;;
35990;SDS011;22064;42.672;23.282;2023-04-25T08:55:52;10.20;;;4.47;;
35990;SDS011;22064;42.672;23.282;2023-04-25T08:58:20;8.98;;;4.20;;
35990;SDS011;22064;42.672;23.282;2023-04-25T09:00:47;4.78;;;3.10;;
35990;SDS011;22064;42.672;23.282;2023-04-25T09:03:15;6.63;;;3.20;;
35990;SDS011;22064;42.672;23.282;2023-04-25T09:05:42;5.80;;;3.00;;
35990;SDS011;22064;42.672;23.282;2023-04-25T09:08:08;4.93;;;3.20;;
35990;SDS011;22064;42.672;23.282;2023-04-25T09:10:35;7.88;;;3.25;;
35990;SDS011;22064;42.672;23.282;2023-04-25T09:13:01;6.82;;;3.03;;
35990;SDS011;22064;42.672;23.282;2023-04-25T09:15:56;6.00;;;3.30;;
35990;SDS011;22064;42.672;23.282;2023-04-25T09:18:43;14.15;;;4.45;;
35990;SDS011;22064;42.672;23.282;2023-04-25T09:21:12;11.13;;;3.93;;
35990;SDS011;22064;42.672;23.282;2023-04-25T09:23:44;9.18;;;4.75;;
35990;SDS011;22064;42.672;23.282;2023-04-25T09:26:17;7.20;;;4.00;;
35990;SDS011;22064;42.672;23.282;2023-04-25T09:28:45;8.60;;;4.20;;
35990;SDS011;22064;42.672;23.282;2023-04-25T09:31:21;10.55;;;4.45;;
35990;SDS011;22064;42.672;23.282;2023-04-25T09:33:50;3.70;;;2.50;;
35990;SDS011;22064;42.672;23.282;2023-04-25T09:36:26;3.92;;;2.65;;
35990;SDS011;22064;42.672;23.282;2023-04-25T09:39:03;2.63;;;1.60;;
35990;SDS011;22064;42.672;23.282;2023-04-25T09:41:42;2.15;;;1.40;;
35990;SDS011;22064;42.672;23.282;2023-04-25T09:44:08;2.53;;;1.33;;
35990;SDS011;22064;42.672;23.282;2023-04-25T09:46:37;3.83;;;1.30;;
35990;SDS011;22064;42.672;23.282;2023-04-25T09:49:06;3.20;;;1.20;;
35990;SDS011;22064;42.672;23.282;2023-04-25T09:54:29;1.50;;;1.17;;
35990;SDS011;22064;42.672;23.282;2023-04-25T09:57:24;3.13;;;1.00;;
35990;SDS011;22064;42.672;23.282;2023-04-25T09:59:54;3.88;;;2.67;;
35990;SDS011;22064;42.672;23.282;2023-04-25T10:02:22;3.40;;;2.22;;
35990;SDS011;22064;42.672;23.282;2023-04-25T10:04:55;5.68;;;2.83;;
35990;SDS011;22064;42.672;23.282;2023-04-25T10:07:26;6.25;;;3.00;;
35990;SDS011;22064;42.672;23.282;2023-04-25T10:10:00;5.82;;;2.83;;
35990;SDS011;22064;42.672;23.282;2023-04-25T10:12:29;6.68;;;2.17;;
35990;SDS011;22064;42.672;23.282;2023-04-25T10:14:57;4.65;;;1.85;;
35990;SDS011;22064;42.672;23.282;2023-04-25T10:17:23;6.68;;;1.40;;
35990;SDS011;22064;42.672;23.282;2023-04-25T10:19:50;1.65;;;1.10;;
35990;SDS011;22064;42.672;23.282;2023-04-25T10:22:35;3.05;;;1.67;;
35990;SDS011;22064;42.672;23.282;2023-04-25T10:25:05;3.38;;;1.60;;
35990;SDS011;22064;42.672;23.282;2023-04-25T10:27:33;2.77;;;1.60;;
35990;SDS011;22064;42.672;23.282;2023-04-25T10:30:03;4.38;;;1.73;;
35990;SDS011;22064;42.672;23.282;2023-04-25T10:32:36;3.58;;;1.25;;
35990;SDS011;22064;42.672;23.282;2023-04-25T10:38:23;1.70;;;1.15;;
35990;SDS011;22064;42.672;23.282;2023-04-25T10:40:38;2.03;;;1.00;;
35990;SDS011;22064;42.672;23.282;2023-04-25T10:45:54;4.32;;;1.75;;
35990;SDS011;22064;42.672;23.282;2023-04-25T10:48:29;4.82;;;2.20;;
35990;SDS011;22064;42.672;23.282;2023-04-25T10:51:08;2.40;;;0.80;;
35990;SDS011;22064;42.672;23.282;2023-04-25T10:53:35;0.85;;;0.80;;
35990;SDS011;22064;42.672;23.282;2023-04-25T10:56:09;1.02;;;0.93;;
35990;SDS011;22064;42.672;23.282;2023-04-25T10:58:43;1.27;;;0.90;;
35990;SDS011;22064;42.672;23.282;2023-04-25T11:01:09;4.28;;;0.98;;
35990;SDS011;22064;42.672;23.282;2023-04-25T11:03:42;1.98;;;1.05;;
35990;SDS011;22064;42.672;23.282;2023-04-25T11:06:18;3.10;;;0.93;;
35990;SDS011;22064;42.672;23.282;2023-04-25T11:08:49;1.55;;;1.02;;
35990;SDS011;22064;42.672;23.282;2023-04-25T11:11:17;0.93;;;0.80;;
35990;SDS011;22064;42.672;23.282;2023-04-25T11:13:44;1.65;;;0.80;;
35990;SDS011;22064;42.672;23.282;2023-04-25T11:16:13;1.50;;;0.80;;
35990;SDS011;22064;42.672;23.282;2023-04-25T11:18:43;2.13;;;0.88;;
35990;SDS011;22064;42.672;23.282;2023-04-25T11:21:09;3.63;;;1.27;;
35990;SDS011;22064;42.672;23.282;2023-04-25T11:23:36;2.72;;;1.13;;
35990;SDS011;22064;42.672;23.282;2023-04-25T11:26:03;1.63;;;1.25;;
35990;SDS011;22064;42.672;23.282;2023-04-25T11:28:29;1.75;;;0.93;;
35990;SDS011;22064;42.672;23.282;2023-04-25T11:30:55;1.67;;;0.98;;
35990;SDS011;22064;42.672;23.282;2023-04-25T11:33:24;3.13;;;1.30;;
35990;SDS011;22064;42.672;23.282;2023-04-25T11:35:55;2.45;;;1.15;;
35990;SDS011;22064;42.672;23.282;2023-04-25T11:38:24;4.30;;;1.40;;
35990;SDS011;22064;42.672;23.282;2023-04-25T11:40:52;4.90;;;1.77;;
35990;SDS011;22064;42.672;23.282;2023-04-25T11:43:21;3.30;;;1.20;;
35990;SDS011;22064;42.672;23.282;2023-04-25T11:45:48;2.95;;;1.17;;
35990;SDS011;22064;42.672;23.282;2023-04-25T11:48:16;1.15;;;0.90;;
35990;SDS011;22064;42.672;23.282;2023-04-25T11:50:42;3.63;;;1.58;;
35990;SDS011;22064;42.672;23.282;2023-04-25T11:53:09;3.33;;;1.30;;
35990;SDS011;22064;42.672;23.282;2023-04-25T11:55:35;2.03;;;1.38;;
35990;SDS011;22064;42.672;23.282;2023-04-25T11:58:02;5.07;;;1.60;;
35990;SDS011;22064;42.672;23.282;2023-04-25T12:00:29;6.22;;;1.98;;
35990;SDS011;22064;42.672;23.282;2023-04-25T12:02:56;3.60;;;2.30;;
35990;SDS011;22064;42.672;23.282;2023-04-25T12:05:29;4.38;;;2.70;;
35990;SDS011;22064;42.672;23.282;2023-04-25T12:08:14;4.80;;;2.20;;
35990;SDS011;22064;42.672;23.282;2023-04-25T12:10:42;6.38;;;2.03;;
35990;SDS011;22064;42.672;23.282;2023-04-25T12:13:25;4.18;;;2.15;;
35990;SDS011;22064;42.672;23.282;2023-04-25T12:15:56;3.40;;;1.90;;
35990;SDS011;22064;42.672;23.282;2023-04-25T12:18:23;3.97;;;2.20;;
35990;SDS011;22064;42.672;23.282;2023-04-25T12:20:53;5.47;;;2.13;;
35990;SDS011;22064;42.672;23.282;2023-04-25T12:23:29;4.38;;;1.95;;
35990;SDS011;22064;42.672;23.282;2023-04-25T12:25:55;2.35;;;1.75;;
35990;SDS011;22064;42.672;23.282;2023-04-25T12:28:22;2.47;;;1.45;;
35990;SDS011;22064;42.672;23.282;2023-04-25T12:30:56;3.22;;;1.42;;
35990;SDS011;22064;42.672;23.282;2023-04-25T12:33:24;1.63;;;1.52;;
35990;SDS011;22064;42.672;23.282;2023-04-25T12:35:52;2.25;;;1.30;;
35990;SDS011;22064;42.672;23.282;2023-04-25T12:38:25;4.10;;;1.35;;
35990;SDS011;22064;42.672;23.282;2023-04-25T12:40:58;1.50;;;1.40;;
35990;SDS011;22064;42.672;23.282;2023-04-25T12:43:24;3.72;;;1.30;;
35990;SDS011;22064;42.672;23.282;2023-04-25T12:45:50;4.65;;;1.50;;
35990;SDS011;22064;42.672;23.282;2023-04-25T12:48:17;3.60;;;1.60;;
35990;SDS011;22064;42.672;23.282;2023-04-25T12:50:44;4.38;;;1.80;;
35990;SDS011;22064;42.672;23.282;2023-04-25T12:53:12;4.10;;;2.35;;
35990;SDS011;22064;42.672;23.282;2023-04-25T12:55:38;3.03;;;2.25;;
35990;SDS011;22064;42.672;23.282;2023-04-25T12:58:04;5.28;;;1.70;;
35990;SDS011;22064;42.672;23.282;2023-04-25T13:00:30;3.03;;;1.63;;
35990;SDS011;22064;42.672;23.282;2023-04-25T13:02:57;2.53;;;1.40;;
35990;SDS011;22064;42.672;23.282;2023-04-25T13:05:23;4.63;;;1.60;;
35990;SDS011;22064;42.672;23.282;2023-04-25T13:07:48;3.47;;;2.00;;
35990;SDS011;22064;42.672;23.282;2023-04-25T13:10:15;3.40;;;2.17;;
35990;SDS011;22064;42.672;23.282;2023-04-25T13:12:41;5.80;;;2.38;;
35990;SDS011;22064;42.672;23.282;2023-04-25T13:15:07;4.22;;;2.60;;
35990;SDS011;22064;42.672;23.282;2023-04-25T13:17:34;4.43;;;2.40;;
35990;SDS011;22064;42.672;23.282;2023-04-25T13:20:00;6.32;;;3.00;;
35990;SDS011;22064;42.672;23.282;2023-04-25T13:22:26;7.47;;;3.17;;
35990;SDS011;22064;42.672;23.282;2023-04-25T13:24:52;6.68;;;3.00;;
35990;SDS011;22064;42.672;23.282;2023-04-25T13:27:18;6.15;;;3.10;;
35990;SDS011;22064;42.672;23.282;2023-04-25T13:29:44;6.18;;;3.33;;
35990;SDS011;22064;42.672;23.282;2023-04-25T13:32:10;9.90;;;4.18;;
35990;SDS011;22064;42.672;23.282;2023-04-25T13:34:36;8.07;;;3.15;;
35990;SDS011;22064;42.672;23.282;2023-04-25T13:37:02;6.60;;;3.30;;
35990;SDS011;22064;42.672;23.282;2023-04-25T13:39:28;8.35;;;3.40;;
35990;SDS011;22064;42.672;23.282;2023-04-25T13:41:54;6.55;;;3.90;;
35990;SDS011;22064;42.672;23.282;2023-04-25T13:44:19;7.05;;;3.60;;
35990;SDS011;22064;42.672;23.282;2023-04-25T13:46:45;8.05;;;3.75;;
35990;SDS011;22064;42.672;23.282;2023-04-25T13:49:11;7.35;;;3.58;;
35990;SDS011;22064;42.672;23.282;2023-04-25T13:51:37;11.68;;;4.30;;
35990;SDS011;22064;42.672;23.282;2023-04-25T13:54:03;9.73;;;4.03;;
35990;SDS011;22064;42.672;23.282;2023-04-25T13:56:29;8.27;;;4.28;;
35990;SDS011;22064;42.672;23.282;2023-04-25T13:58:55;11.95;;;6.45;;
35990;SDS011;22064;42.672;23.282;2023-04-25T14:01:22;6.63;;;3.20;;
35990;SDS011;22064;42.672;23.282;2023-04-25T14:03:48;6.38;;;2.60;;
35990;SDS011;22064;42.672;23.282;2023-04-25T14:06:14;6.63;;;2.60;;
35990;SDS011;22064;42.672;23.282;2023-04-25T14:08:46;3.85;;;2.38;;
35990;SDS011;22064;42.672;23.282;2023-04-25T14:11:12;4.47;;;2.35;;
35990;SDS011;22064;42.672;23.282;2023-04-25T14:13:38;2.70;;;1.98;;
35990;SDS011;22064;42.672;23.282;2023-04-25T14:16:04;3.47;;;1.92;;
35990;SDS011;22064;42.672;23.282;2023-04-25T14:18:30;2.53;;;1.92;;
35990;SDS011;22064;42.672;23.282;2023-04-25T14:20:57;5.07;;;2.17;;
35990;SDS011;22064;42.672;23.282;2023-04-25T14:23:23;1.63;;;1.40;;
35990;SDS011;22064;42.672;23.282;2023-04-25T14:25:49;4.05;;;1.58;;
35990;SDS011;22064;42.672;23.282;2023-04-25T14:28:15;3.55;;;1.50;;
35990;SDS011;22064;42.672;23.282;2023-04-25T14:30:41;2.67;;;1.45;;
35990;SDS011;22064;42.672;23.282;2023-04-25T14:33:07;2.40;;;1.80;;
35990;SDS011;22064;42.672;23.282;2023-04-25T14:35:33;1.35;;;1.23;;
35990;SDS011;22064;42.672;23.282;2023-04-25T14:38:00;2.15;;;1.25;;
35990;SDS011;22064;42.672;23.282;2023-04-25T14:40:26;2.33;;;1.70;;
35990;SDS011;22064;42.672;23.282;2023-04-25T14:42:52;5.53;;;1.80;;
35990;SDS011;22064;42.672;23.282;2023-04-25T14:45:18;5.13;;;1.80;;
35990;SDS011;22064;42.672;23.282;2023-04-25T14:47:43;2.60;;;1.50;;
35990;SDS011;22064;42.672;23.282;2023-04-25T14:50:10;3.90;;;1.60;;